sensor_id;sensor_type;location;lat;lon;timestamp;pressure;altitude;pressure_sealevel;temperature;humidity
42431;BME280;28070;47.462;19.036;2022-08-19T00:01:46;99694.31;;;27.32;45.90
42431;BME280;28070;47.462;19.036;2022-08-19T00:04:21;99704.81;;;27.35;45.82
42431;BME280;28070;47.462;19.036;2022-08-19T00:06:50;99694.97;;;27.34;45.54
42431;BME280;28070;47.462;19.036;2022-08-19T00:09:19;99700.06;;;27.28;46.45
42431;BME280;28070;47.462;19.036;2022-08-19T00:11:48;99693.97;;;27.26;46.25
42431;BME280;28070;47.462;19.036;2022-08-19T00:14:17;99689.94;;;27.22;46.14
42431;BME280;28070;47.462;19.036;2022-08-19T00:16:48;99689.25;;;27.20;46.26
42431;BME280;28070;47.462;19.036;2022-08-19T00:19:18;99693.31;;;27.16;45.81
42431;BME280;28070;47.462;19.036;2022-08-19T00:21:46;99689.75;;;27.16;47.13
42431;BME280;28070;47.462;19.036;2022-08-19T00:24:14;99690.28;;;27.11;46.70
42431;BME280;28070;47.462;19.036;2022-08-19T00:26:44;99686.06;;;27.09;46.53
42431;BME280;28070;47.462;19.036;2022-08-19T00:29:15;99698.59;;;27.10;46.75
42431;BME280;28070;47.462;19.036;2022-08-19T00:31:46;99694.19;;;27.09;47.06
42431;BME280;28070;47.462;19.036;2022-08-19T00:34:19;99691.97;;;27.04;47.46
42431;BME280;28070;47.462;19.036;2022-08-19T00:36:48;99698.06;;;26.98;47.11
42431;BME280;28070;47.462;19.036;2022-08-19T00:39:17;99700.81;;;27.06;47.22
42431;BME280;28070;47.462;19.036;2022-08-19T00:41:46;99699.75;;;26.99;46.85
42431;BME280;28070;47.462;19.036;2022-08-19T00:44:18;99689.75;;;26.99;47.06
42431;BME280;28070;47.462;19.036;2022-08-19T00:46:54;99689.63;;;27.01;47.67
42431;BME280;28070;47.462;19.036;2022-08-19T00:49:30;99687.75;;;26.93;46.81
42431;BME280;28070;47.462;19.036;2022-08-19T00:52:03;99678.91;;;26.91;47.64
42431;BME280;28070;47.462;19.036;2022-08-19T00:54:32;99677.75;;;26.94;47.68
42431;BME280;28070;47.462;19.036;2022-08-19T00:57:01;99676.56;;;26.88;47.84
42431;BME280;28070;47.462;19.036;2022-08-19T00:59:29;99674.19;;;26.85;47.83
42431;BME280;28070;47.462;19.036;2022-08-19T01:02:18;99680.81;;;26.83;47.58
42431;BME280;28070;47.462;19.036;2022-08-19T01:04:48;99676.56;;;26.72;47.68
42431;BME280;28070;47.462;19.036;2022-08-19T01:07:16;99674.03;;;26.71;47.73
42431;BME280;28070;47.462;19.036;2022-08-19T01:09:46;99681.81;;;26.74;48.24
42431;BME280;28070;47.462;19.036;2022-08-19T01:12:15;99682.84;;;26.73;48.38
42431;BME280;28070;47.462;19.036;2022-08-19T01:14:44;99688.25;;;26.64;48.63
42431;BME280;28070;47.462;19.036;2022-08-19T01:17:14;99679.78;;;26.59;48.77
42431;BME280;28070;47.462;19.036;2022-08-19T01:19:43;99673.03;;;26.55;48.54
42431;BME280;28070;47.462;19.036;2022-08-19T01:22:19;99665.91;;;26.54;49.04
42431;BME280;28070;47.462;19.036;2022-08-19T01:25:00;99668.63;;;26.46;49.14
42431;BME280;28070;47.462;19.036;2022-08-19T01:27:37;99663.84;;;26.40;49.04
42431;BME280;28070;47.462;19.036;2022-08-19T01:30:11;99670.47;;;26.46;48.61
42431;BME280;28070;47.462;19.036;2022-08-19T01:32:41;99668.94;;;26.51;48.55
42431;BME280;28070;47.462;19.036;2022-08-19T01:35:11;99665.75;;;26.48;49.39
42431;BME280;28070;47.462;19.036;2022-08-19T01:37:49;99656.94;;;26.46;48.80
42431;BME280;28070;47.462;19.036;2022-08-19T01:40:21;99657.28;;;26.51;49.02
42431;BME280;28070;47.462;19.036;2022-08-19T01:42:51;99659.47;;;26.47;48.91
42431;BME280;28070;47.462;19.036;2022-08-19T01:45:23;99658.78;;;26.37;49.26
42431;BME280;28070;47.462;19.036;2022-08-19T01:47:52;99658.25;;;26.33;49.29
42431;BME280;28070;47.462;19.036;2022-08-19T01:50:29;99645.59;;;26.42;48.29
42431;BME280;28070;47.462;19.036;2022-08-19T01:52:57;99650.50;;;26.47;48.58
42431;BME280;28070;47.462;19.036;2022-08-19T01:55:35;99641.88;;;26.51;48.35
42431;BME280;28070;47.462;19.036;2022-08-19T01:58:12;99630.00;;;26.52;48.30
42431;BME280;28070;47.462;19.036;2022-08-19T02:00:42;99637.66;;;26.57;48.04
42431;BME280;28070;47.462;19.036;2022-08-19T02:03:12;99631.72;;;26.61;47.97
42431;BME280;28070;47.462;19.036;2022-08-19T02:05:40;99636.28;;;26.61;48.11
42431;BME280;28070;47.462;19.036;2022-08-19T02:08:10;99620.69;;;26.55;48.07
42431;BME280;28070;47.462;19.036;2022-08-19T02:10:42;99624.09;;;26.57;48.21
42431;BME280;28070;47.462;19.036;2022-08-19T02:13:12;99617.50;;;26.59;47.96
42431;BME280;28070;47.462;19.036;2022-08-19T02:15:40;99617.84;;;26.56;47.81
42431;BME280;28070;47.462;19.036;2022-08-19T02:18:09;99618.69;;;26.57;47.99
42431;BME280;28070;47.462;19.036;2022-08-19T02:20:38;99621.06;;;26.60;47.86
42431;BME280;28070;47.462;19.036;2022-08-19T02:23:08;99622.25;;;26.57;47.81
42431;BME280;28070;47.462;19.036;2022-08-19T02:25:41;99617.84;;;26.56;47.87
42431;BME280;28070;47.462;19.036;2022-08-19T02:28:11;99609.53;;;26.58;48.02
42431;BME280;28070;47.462;19.036;2022-08-19T02:30:45;99596.84;;;26.42;48.15
42431;BME280;28070;47.462;19.036;2022-08-19T02:33:13;99602.13;;;26.44;48.31
42431;BME280;28070;47.462;19.036;2022-08-19T02:35:42;99617.66;;;26.50;48.67
42431;BME280;28070;47.462;19.036;2022-08-19T02:38:11;99626.63;;;26.50;48.44
42431;BME280;28070;47.462;19.036;2022-08-19T02:40:58;99615.31;;;26.47;48.40
42431;BME280;28070;47.462;19.036;2022-08-19T02:43:28;99630.69;;;26.38;48.92
42431;BME280;28070;47.462;19.036;2022-08-19T02:45:59;99623.53;;;26.29;48.37
42431;BME280;28070;47.462;19.036;2022-08-19T02:48:28;99630.66;;;26.22;49.01
42431;BME280;28070;47.462;19.036;2022-08-19T02:50:56;99634.38;;;26.21;49.47
42431;BME280;28070;47.462;19.036;2022-08-19T02:53:27;99627.63;;;26.25;49.37
42431;BME280;28070;47.462;19.036;2022-08-19T02:55:57;99640.97;;;26.10;49.75
42431;BME280;28070;47.462;19.036;2022-08-19T02:58:25;99653.31;;;26.13;49.63
42431;BME280;28070;47.462;19.036;2022-08-19T03:00:55;99653.66;;;26.09;50.38
42431;BME280;28070;47.462;19.036;2022-08-19T03:03:24;99646.84;;;25.97;50.56
42431;BME280;28070;47.462;19.036;2022-08-19T03:06:03;99633.78;;;25.76;51.20
42431;BME280;28070;47.462;19.036;2022-08-19T03:08:31;99636.97;;;25.72;51.56
42431;BME280;28070;47.462;19.036;2022-08-19T03:11:01;99647.47;;;25.75;51.48
42431;BME280;28070;47.462;19.036;2022-08-19T03:13:29;99646.47;;;25.76;51.55
42431;BME280;28070;47.462;19.036;2022-08-19T03:15:58;99644.00;;;25.57;51.88
42431;BME280;28070;47.462;19.036;2022-08-19T03:18:26;99659.00;;;25.43;52.43
42431;BME280;28070;47.462;19.036;2022-08-19T03:20:54;99668.13;;;25.42;52.51
42431;BME280;28070;47.462;19.036;2022-08-19T03:23:23;99674.88;;;25.46;52.67
42431;BME280;28070;47.462;19.036;2022-08-19T03:25:52;99663.22;;;25.45;52.71
42431;BME280;28070;47.462;19.036;2022-08-19T03:28:42;99663.50;;;25.34;53.05
42431;BME280;28070;47.462;19.036;2022-08-19T03:31:19;99663.44;;;25.26;53.27
42431;BME280;28070;47.462;19.036;2022-08-19T03:34:10;99664.09;;;25.20;53.47
42431;BME280;28070;47.462;19.036;2022-08-19T03:36:39;99664.88;;;25.12;53.85
42431;BME280;28070;47.462;19.036;2022-08-19T03:39:07;99676.25;;;25.16;53.85
42431;BME280;28070;47.462;19.036;2022-08-19T03:41:39;99663.44;;;25.18;53.56
42431;BME280;28070;47.462;19.036;2022-08-19T03:44:13;99667.44;;;25.14;53.75
42431;BME280;28070;47.462;19.036;2022-08-19T03:46:44;99665.72;;;25.05;54.03
42431;BME280;28070;47.462;19.036;2022-08-19T03:49:13;99681.59;;;25.08;54.03
42431;BME280;28070;47.462;19.036;2022-08-19T03:51:44;99682.63;;;25.15;54.12
42431;BME280;28070;47.462;19.036;2022-08-19T03:54:14;99686.06;;;25.17;53.84
42431;BME280;28070;47.462;19.036;2022-08-19T03:56:44;99682.22;;;25.02;53.98
42431;BME280;28070;47.462;19.036;2022-08-19T03:59:17;99696.56;;;25.02;54.07
42431;BME280;28070;47.462;19.036;2022-08-19T04:01:46;99686.69;;;25.11;54.11
42431;BME280;28070;47.462;19.036;2022-08-19T04:04:14;99683.34;;;25.17;54.04
42431;BME280;28070;47.462;19.036;2022-08-19T04:06:45;99684.50;;;25.14;53.97
42431;BME280;28070;47.462;19.036;2022-08-19T04:09:15;99682.09;;;25.03;54.05
42431;BME280;28070;47.462;19.036;2022-08-19T04:11:45;99701.53;;;25.07;54.24
42431;BME280;28070;47.462;19.036;2022-08-19T04:14:18;99704.41;;;25.13;54.20
42431;BME280;28070;47.462;19.036;2022-08-19T04:16:47;99701.94;;;25.20;53.72
42431;BME280;28070;47.462;19.036;2022-08-19T04:19:17;99711.38;;;25.16;53.10
42431;BME280;28070;47.462;19.036;2022-08-19T04:21:49;99717.47;;;25.18;53.49
42431;BME280;28070;47.462;19.036;2022-08-19T04:24:18;99708.88;;;25.22;53.51
42431;BME280;28070;47.462;19.036;2022-08-19T04:26:47;99694.63;;;25.12;53.63
42431;BME280;28070;47.462;19.036;2022-08-19T04:29:20;99696.81;;;24.91;54.06
42431;BME280;28070;47.462;19.036;2022-08-19T04:31:52;99706.78;;;24.90;54.32
42431;BME280;28070;47.462;19.036;2022-08-19T04:34:23;99711.09;;;25.01;54.15
42431;BME280;28070;47.462;19.036;2022-08-19T04:36:53;99715.78;;;24.99;53.92
42431;BME280;28070;47.462;19.036;2022-08-19T04:39:24;99723.75;;;25.01;54.00
42431;BME280;28070;47.462;19.036;2022-08-19T04:42:13;99722.03;;;25.00;54.12
42431;BME280;28070;47.462;19.036;2022-08-19T04:45:01;99719.28;;;24.91;54.58
42431;BME280;28070;47.462;19.036;2022-08-19T04:47:34;99722.28;;;24.88;54.79
42431;BME280;28070;47.462;19.036;2022-08-19T04:50:17;99711.53;;;24.97;54.58
42431;BME280;28070;47.462;19.036;2022-08-19T04:52:45;99707.53;;;25.01;54.57
42431;BME280;28070;47.462;19.036;2022-08-19T04:55:13;99713.00;;;25.09;54.21
42431;BME280;28070;47.462;19.036;2022-08-19T04:57:41;99723.03;;;25.16;54.18
42431;BME280;28070;47.462;19.036;2022-08-19T05:00:12;99715.13;;;25.23;53.40
42431;BME280;28070;47.462;19.036;2022-08-19T05:02:40;99717.66;;;25.24;53.68
42431;BME280;28070;47.462;19.036;2022-08-19T05:05:08;99724.00;;;25.33;53.31
42431;BME280;28070;47.462;19.036;2022-08-19T05:07:36;99719.94;;;25.37;53.04
42431;BME280;28070;47.462;19.036;2022-08-19T05:10:07;99721.38;;;25.49;52.93
42431;BME280;28070;47.462;19.036;2022-08-19T05:12:35;99724.81;;;25.60;52.46
42431;BME280;28070;47.462;19.036;2022-08-19T05:15:05;99723.63;;;25.62;51.98
42431;BME280;28070;47.462;19.036;2022-08-19T05:17:36;99720.84;;;25.72;51.74
42431;BME280;28070;47.462;19.036;2022-08-19T05:20:07;99724.56;;;25.79;51.85
42431;BME280;28070;47.462;19.036;2022-08-19T05:22:53;99719.22;;;25.87;51.17
42431;BME280;28070;47.462;19.036;2022-08-19T05:25:21;99718.41;;;25.95;50.83
42431;BME280;28070;47.462;19.036;2022-08-19T05:27:52;99715.19;;;25.99;50.86
42431;BME280;28070;47.462;19.036;2022-08-19T05:30:20;99715.69;;;26.03;50.54
42431;BME280;28070;47.462;19.036;2022-08-19T05:33:10;99710.81;;;26.06;50.61
42431;BME280;28070;47.462;19.036;2022-08-19T05:35:39;99714.22;;;26.08;50.77
42431;BME280;28070;47.462;19.036;2022-08-19T05:38:07;99728.63;;;26.17;50.40
42431;BME280;28070;47.462;19.036;2022-08-19T05:40:36;99723.38;;;26.24;50.41
42431;BME280;28070;47.462;19.036;2022-08-19T05:43:06;99723.03;;;26.27;50.05
42431;BME280;28070;47.462;19.036;2022-08-19T05:45:39;99717.81;;;26.33;50.28
42431;BME280;28070;47.462;19.036;2022-08-19T05:48:10;99718.03;;;26.40;49.77
42431;BME280;28070;47.462;19.036;2022-08-19T05:50:39;99719.38;;;26.36;49.80
42431;BME280;28070;47.462;19.036;2022-08-19T05:53:08;99720.72;;;26.40;49.69
42431;BME280;28070;47.462;19.036;2022-08-19T05:55:36;99722.44;;;26.49;49.89
42431;BME280;28070;47.462;19.036;2022-08-19T05:58:06;99723.47;;;26.56;49.48
42431;BME280;28070;47.462;19.036;2022-08-19T06:00:35;99727.03;;;26.65;48.63
42431;BME280;28070;47.462;19.036;2022-08-19T06:03:03;99723.47;;;26.73;48.73
42431;BME280;28070;47.462;19.036;2022-08-19T06:05:40;99722.78;;;26.79;48.24
42431;BME280;28070;47.462;19.036;2022-08-19T06:08:19;99716.03;;;26.75;48.61
42431;BME280;28070;47.462;19.036;2022-08-19T06:11:15;99718.56;;;27.01;47.84
42431;BME280;28070;47.462;19.036;2022-08-19T06:13:44;99719.75;;;26.98;47.91
42431;BME280;28070;47.462;19.036;2022-08-19T06:16:17;99724.16;;;26.99;47.69
42431;BME280;28070;47.462;19.036;2022-08-19T06:18:50;99723.13;;;27.00;47.91
42431;BME280;28070;47.462;19.036;2022-08-19T06:21:22;99728.06;;;27.13;47.61
42431;BME280;28070;47.462;19.036;2022-08-19T06:23:51;99723.47;;;27.21;47.38
42431;BME280;28070;47.462;19.036;2022-08-19T06:26:20;99718.88;;;27.30;47.63
42431;BME280;28070;47.462;19.036;2022-08-19T06:28:48;99714.47;;;27.37;47.27
42431;BME280;28070;47.462;19.036;2022-08-19T06:31:18;99705.78;;;27.42;46.87
42431;BME280;28070;47.462;19.036;2022-08-19T06:33:48;99697.34;;;27.45;47.12
42431;BME280;28070;47.462;19.036;2022-08-19T06:36:18;99697.28;;;27.53;46.46
42431;BME280;28070;47.462;19.036;2022-08-19T06:38:52;99706.06;;;27.63;46.12
42431;BME280;28070;47.462;19.036;2022-08-19T06:41:20;99701.34;;;27.65;46.15
42431;BME280;28070;47.462;19.036;2022-08-19T06:43:48;99713.50;;;27.77;45.96
42431;BME280;28070;47.462;19.036;2022-08-19T06:46:22;99706.66;;;27.90;45.71
42431;BME280;28070;47.462;19.036;2022-08-19T06:48:50;99698.13;;;28.01;45.51
42431;BME280;28070;47.462;19.036;2022-08-19T06:51:22;99705.72;;;28.05;44.99
42431;BME280;28070;47.462;19.036;2022-08-19T06:53:54;99701.47;;;28.11;44.86
42431;BME280;28070;47.462;19.036;2022-08-19T06:56:24;99701.94;;;28.14;44.81
42431;BME280;28070;47.462;19.036;2022-08-19T06:58:57;99704.78;;;28.29;44.33
42431;BME280;28070;47.462;19.036;2022-08-19T07:01:26;99714.38;;;28.40;44.27
42431;BME280;28070;47.462;19.036;2022-08-19T07:03:55;99720.28;;;28.43;43.88
42431;BME280;28070;47.462;19.036;2022-08-19T07:06:24;99717.06;;;28.48;43.97
42431;BME280;28070;47.462;19.036;2022-08-19T07:09:14;99728.50;;;28.58;43.73
42431;BME280;28070;47.462;19.036;2022-08-19T07:11:45;99732.19;;;28.65;43.34
42431;BME280;28070;47.462;19.036;2022-08-19T07:14:18;99737.59;;;28.73;43.20
42431;BME280;28070;47.462;19.036;2022-08-19T07:16:48;99740.41;;;28.80;42.64
42431;BME280;28070;47.462;19.036;2022-08-19T07:19:19;99734.13;;;28.80;42.72
42431;BME280;28070;47.462;19.036;2022-08-19T07:21:49;99736.63;;;28.89;42.57
42431;BME280;28070;47.462;19.036;2022-08-19T07:24:23;99739.63;;;28.94;41.70
42431;BME280;28070;47.462;19.036;2022-08-19T07:26:53;99736.19;;;29.00;41.74
42431;BME280;28070;47.462;19.036;2022-08-19T07:29:21;99740.69;;;29.08;41.70
42431;BME280;28070;47.462;19.036;2022-08-19T07:31:54;99744.84;;;29.19;41.41
42431;BME280;28070;47.462;19.036;2022-08-19T07:34:28;99744.41;;;29.30;41.48
42431;BME280;28070;47.462;19.036;2022-08-19T07:36:59;99735.22;;;29.31;40.94
42431;BME280;28070;47.462;19.036;2022-08-19T07:39:34;99735.59;;;29.43;41.01
42431;BME280;28070;47.462;19.036;2022-08-19T07:42:05;99727.84;;;29.54;41.30
42431;BME280;28070;47.462;19.036;2022-08-19T07:44:35;99722.22;;;29.56;40.54
42431;BME280;28070;47.462;19.036;2022-08-19T07:47:08;99721.94;;;29.66;40.21
42431;BME280;28070;47.462;19.036;2022-08-19T07:49:56;99727.56;;;29.79;40.14
42431;BME280;28070;47.462;19.036;2022-08-19T07:52:25;99719.97;;;29.89;39.89
42431;BME280;28070;47.462;19.036;2022-08-19T07:54:54;99727.94;;;29.91;39.14
42431;BME280;28070;47.462;19.036;2022-08-19T07:57:22;99725.47;;;30.10;39.02
42431;BME280;28070;47.462;19.036;2022-08-19T07:59:50;99733.25;;;30.28;38.75
42431;BME280;28070;47.462;19.036;2022-08-19T08:02:19;99731.41;;;30.35;38.32
42431;BME280;28070;47.462;19.036;2022-08-19T08:04:47;99724.22;;;30.49;38.39
42431;BME280;28070;47.462;19.036;2022-08-19T08:07:32;99725.25;;;30.63;37.91
42431;BME280;28070;47.462;19.036;2022-08-19T08:10:20;99729.31;;;30.73;37.63
42431;BME280;28070;47.462;19.036;2022-08-19T08:12:50;99733.38;;;30.78;37.40
42431;BME280;28070;47.462;19.036;2022-08-19T08:15:37;99734.06;;;30.86;37.03
42431;BME280;28070;47.462;19.036;2022-08-19T08:18:09;99731.00;;;30.96;37.53
42431;BME280;28070;47.462;19.036;2022-08-19T08:20:38;99729.44;;;31.08;36.36
42431;BME280;28070;47.462;19.036;2022-08-19T08:23:06;99732.94;;;31.23;35.76
42431;BME280;28070;47.462;19.036;2022-08-19T08:25:55;99738.38;;;31.23;34.90
42431;BME280;28070;47.462;19.036;2022-08-19T08:28:24;99729.66;;;31.34;34.38
42431;BME280;28070;47.462;19.036;2022-08-19T08:30:57;99729.41;;;31.29;34.77
42431;BME280;28070;47.462;19.036;2022-08-19T08:33:27;99729.72;;;31.41;34.41
42431;BME280;28070;47.462;19.036;2022-08-19T08:36:01;99732.28;;;31.49;33.91
42431;BME280;28070;47.462;19.036;2022-08-19T08:38:32;99730.03;;;31.59;34.17
42431;BME280;28070;47.462;19.036;2022-08-19T08:41:22;99724.09;;;31.77;33.90
42431;BME280;28070;47.462;19.036;2022-08-19T08:43:56;99728.97;;;31.95;33.80
42431;BME280;28070;47.462;19.036;2022-08-19T08:46:28;99726.25;;;31.95;32.71
42431;BME280;28070;47.462;19.036;2022-08-19T08:49:04;99714.50;;;32.01;33.06
42431;BME280;28070;47.462;19.036;2022-08-19T08:51:40;99703.34;;;31.96;33.06
42431;BME280;28070;47.462;19.036;2022-08-19T08:54:14;99704.81;;;31.92;33.06
42431;BME280;28070;47.462;19.036;2022-08-19T08:56:46;99702.94;;;31.92;33.51
42431;BME280;28070;47.462;19.036;2022-08-19T08:59:21;99707.75;;;31.90;33.36
42431;BME280;28070;47.462;19.036;2022-08-19T09:01:50;99715.13;;;31.97;33.46
42431;BME280;28070;47.462;19.036;2022-08-19T09:04:19;99717.28;;;32.08;33.50
42431;BME280;28070;47.462;19.036;2022-08-19T09:06:54;99708.91;;;32.16;33.34
42431;BME280;28070;47.462;19.036;2022-08-19T09:09:30;99703.88;;;32.19;33.28
42431;BME280;28070;47.462;19.036;2022-08-19T09:12:05;99707.91;;;32.30;32.95
42431;BME280;28070;47.462;19.036;2022-08-19T09:14:43;99710.66;;;32.30;32.89
42431;BME280;28070;47.462;19.036;2022-08-19T09:17:17;99712.13;;;32.39;33.15
42431;BME280;28070;47.462;19.036;2022-08-19T09:19:54;99702.28;;;32.58;32.89
42431;BME280;28070;47.462;19.036;2022-08-19T09:22:24;99706.09;;;32.70;32.89
42431;BME280;28070;47.462;19.036;2022-08-19T09:24:54;99705.88;;;32.72;32.50
42431;BME280;28070;47.462;19.036;2022-08-19T09:27:25;99705.47;;;32.68;32.49
42431;BME280;28070;47.462;19.036;2022-08-19T09:30:13;99689.69;;;32.70;32.83
42431;BME280;28070;47.462;19.036;2022-08-19T09:32:42;99689.06;;;32.88;32.59
42431;BME280;28070;47.462;19.036;2022-08-19T09:35:12;99679.81;;;33.02;31.50
42431;BME280;28070;47.462;19.036;2022-08-19T09:37:41;99685.06;;;33.11;31.40
42431;BME280;28070;47.462;19.036;2022-08-19T09:40:11;99687.38;;;33.20;31.33
42431;BME280;28070;47.462;19.036;2022-08-19T09:42:43;99684.00;;;33.25;31.53
42431;BME280;28070;47.462;19.036;2022-08-19T09:45:17;99668.84;;;33.35;31.02
42431;BME280;28070;47.462;19.036;2022-08-19T09:47:48;99673.50;;;33.42;30.69
42431;BME280;28070;47.462;19.036;2022-08-19T09:50:21;99680.81;;;33.41;30.66
42431;BME280;28070;47.462;19.036;2022-08-19T09:52:50;99669.88;;;33.54;30.49
42431;BME280;28070;47.462;19.036;2022-08-19T09:55:25;99664.13;;;33.62;29.62
42431;BME280;28070;47.462;19.036;2022-08-19T09:58:03;99660.59;;;33.55;29.92
42431;BME280;28070;47.462;19.036;2022-08-19T10:00:31;99650.44;;;33.62;29.95
42431;BME280;28070;47.462;19.036;2022-08-19T10:03:00;99658.66;;;33.69;30.10
42431;BME280;28070;47.462;19.036;2022-08-19T10:05:29;99656.09;;;33.74;29.82
42431;BME280;28070;47.462;19.036;2022-08-19T10:08:15;99657.53;;;33.83;29.42
42431;BME280;28070;47.462;19.036;2022-08-19T10:10:47;99662.38;;;33.88;29.98
42431;BME280;28070;47.462;19.036;2022-08-19T10:13:20;99661.47;;;34.01;29.77
42431;BME280;28070;47.462;19.036;2022-08-19T10:15:51;99656.22;;;33.99;29.64
42431;BME280;28070;47.462;19.036;2022-08-19T10:18:22;99646.09;;;34.00;29.65
42431;BME280;28070;47.462;19.036;2022-08-19T10:20:51;99651.34;;;34.01;29.40
42431;BME280;28070;47.462;19.036;2022-08-19T10:23:21;99656.75;;;34.14;29.65
42431;BME280;28070;47.462;19.036;2022-08-19T10:25:49;99649.38;;;34.15;29.11
42431;BME280;28070;47.462;19.036;2022-08-19T10:28:21;99645.56;;;34.16;29.50
42431;BME280;28070;47.462;19.036;2022-08-19T10:30:50;99643.16;;;34.33;29.47
42431;BME280;28070;47.462;19.036;2022-08-19T10:33:19;99646.22;;;34.49;28.91
42431;BME280;28070;47.462;19.036;2022-08-19T10:36:11;99648.28;;;34.54;28.68
42431;BME280;28070;47.462;19.036;2022-08-19T10:38:45;99642.81;;;34.54;28.96
42431;BME280;28070;47.462;19.036;2022-08-19T10:41:23;99651.44;;;34.58;28.28
42431;BME280;28070;47.462;19.036;2022-08-19T10:43:54;99639.63;;;34.57;28.26
42431;BME280;28070;47.462;19.036;2022-08-19T10:46:30;99650.66;;;34.75;28.33
42431;BME280;28070;47.462;19.036;2022-08-19T10:48:59;99649.59;;;34.76;28.08
42431;BME280;28070;47.462;19.036;2022-08-19T10:51:28;99643.66;;;34.79;28.18
42431;BME280;28070;47.462;19.036;2022-08-19T10:54:15;99645.22;;;34.94;28.31
42431;BME280;28070;47.462;19.036;2022-08-19T10:56:57;99637.75;;;35.07;27.83
42431;BME280;28070;47.462;19.036;2022-08-19T10:59:27;99647.19;;;35.12;27.67
42431;BME280;28070;47.462;19.036;2022-08-19T11:02:03;99649.41;;;35.21;27.69
42431;BME280;28070;47.462;19.036;2022-08-19T11:04:32;99649.09;;;35.29;27.16
42431;BME280;28070;47.462;19.036;2022-08-19T11:07:02;99644.56;;;35.42;27.42
42431;BME280;28070;47.462;19.036;2022-08-19T11:09:30;99642.50;;;35.55;26.74
42431;BME280;28070;47.462;19.036;2022-08-19T11:12:00;99641.97;;;35.65;26.60
42431;BME280;28070;47.462;19.036;2022-08-19T11:14:32;99639.66;;;35.80;26.62
42431;BME280;28070;47.462;19.036;2022-08-19T11:17:02;99640.25;;;35.82;26.43
42431;BME280;28070;47.462;19.036;2022-08-19T11:19:31;99638.97;;;35.85;26.34
42431;BME280;28070;47.462;19.036;2022-08-19T11:21:59;99634.84;;;35.76;26.34
42431;BME280;28070;47.462;19.036;2022-08-19T11:24:30;99642.88;;;35.77;26.23
42431;BME280;28070;47.462;19.036;2022-08-19T11:27:04;99641.06;;;35.89;25.78
42431;BME280;28070;47.462;19.036;2022-08-19T11:29:35;99638.47;;;36.06;26.05
42431;BME280;28070;47.462;19.036;2022-08-19T11:32:04;99628.72;;;36.10;25.27
42431;BME280;28070;47.462;19.036;2022-08-19T11:34:33;99637.03;;;36.34;25.53
42431;BME280;28070;47.462;19.036;2022-08-19T11:37:02;99636.75;;;36.53;25.41
42431;BME280;28070;47.462;19.036;2022-08-19T11:39:33;99636.47;;;36.43;25.17
42431;BME280;28070;47.462;19.036;2022-08-19T11:42:04;99632.94;;;36.66;24.90
42431;BME280;28070;47.462;19.036;2022-08-19T11:44:55;99628.41;;;36.83;24.63
42431;BME280;28070;47.462;19.036;2022-08-19T11:47:23;99629.03;;;36.86;24.74
42431;BME280;28070;47.462;19.036;2022-08-19T11:49:52;99623.63;;;36.79;24.49
42431;BME280;28070;47.462;19.036;2022-08-19T11:52:21;99638.97;;;36.98;24.17
42431;BME280;28070;47.462;19.036;2022-08-19T11:54:49;99627.59;;;37.18;24.30
42431;BME280;28070;47.462;19.036;2022-08-19T11:57:17;99618.47;;;37.41;23.68
42431;BME280;28070;47.462;19.036;2022-08-19T11:59:51;99618.25;;;37.31;23.85
42431;BME280;28070;47.462;19.036;2022-08-19T12:02:21;99615.47;;;37.19;24.11
42431;BME280;28070;47.462;19.036;2022-08-19T12:04:50;99620.75;;;37.32;23.92
42431;BME280;28070;47.462;19.036;2022-08-19T12:07:18;99618.59;;;36.64;23.95
42431;BME280;28070;47.462;19.036;2022-08-19T12:09:46;99620.84;;;36.79;24.09
42431;BME280;28070;47.462;19.036;2022-08-19T12:12:14;99625.66;;;36.95;24.00
42431;BME280;28070;47.462;19.036;2022-08-19T12:14:42;99621.50;;;37.04;24.14
42431;BME280;28070;47.462;19.036;2022-08-19T12:17:11;99624.72;;;37.25;23.36
42431;BME280;28070;47.462;19.036;2022-08-19T12:19:41;99624.94;;;37.35;23.75
42431;BME280;28070;47.462;19.036;2022-08-19T12:22:09;99627.84;;;37.40;23.32
42431;BME280;28070;47.462;19.036;2022-08-19T12:24:37;99625.53;;;37.49;23.09
42431;BME280;28070;47.462;19.036;2022-08-19T12:27:05;99625.16;;;37.45;23.00
42431;BME280;28070;47.462;19.036;2022-08-19T12:29:38;99629.72;;;37.51;23.31
42431;BME280;28070;47.462;19.036;2022-08-19T12:32:08;99622.09;;;37.30;23.20
42431;BME280;28070;47.462;19.036;2022-08-19T12:34:38;99629.75;;;37.28;23.19
42431;BME280;28070;47.462;19.036;2022-08-19T12:37:08;99617.72;;;37.57;23.37
42431;BME280;28070;47.462;19.036;2022-08-19T12:39:40;99609.56;;;37.62;23.27
42431;BME280;28070;47.462;19.036;2022-08-19T12:42:09;99606.34;;;37.94;23.10
42431;BME280;28070;47.462;19.036;2022-08-19T12:44:39;99602.44;;;37.90;22.51
42431;BME280;28070;47.462;19.036;2022-08-19T12:47:10;99600.47;;;37.62;22.66
42431;BME280;28070;47.462;19.036;2022-08-19T12:49:39;99592.38;;;37.72;22.65
42431;BME280;28070;47.462;19.036;2022-08-19T12:52:23;99594.16;;;37.90;22.74
42431;BME280;28070;47.462;19.036;2022-08-19T12:54:55;99587.66;;;38.24;22.73
42431;BME280;28070;47.462;19.036;2022-08-19T12:57:26;99580.38;;;38.35;22.55
42431;BME280;28070;47.462;19.036;2022-08-19T13:00:01;99581.53;;;37.94;22.49
42431;BME280;28070;47.462;19.036;2022-08-19T13:02:31;99590.44;;;37.44;23.10
42431;BME280;28070;47.462;19.036;2022-08-19T13:05:05;99592.91;;;37.57;22.98
42431;BME280;28070;47.462;19.036;2022-08-19T13:07:36;99584.38;;;38.27;22.86
42431;BME280;28070;47.462;19.036;2022-08-19T13:10:06;99585.16;;;38.73;22.13
42431;BME280;28070;47.462;19.036;2022-08-19T13:12:35;99592.00;;;38.88;22.10
42431;BME280;28070;47.462;19.036;2022-08-19T13:15:04;99576.03;;;38.90;21.78